sensor_id;sensor_type;location;lat;lon;timestamp;temperature;humidity
15888;DHT22;56032;51.324;12.376;2022-12-11T00:01:51;-1.10;99.90
15888;DHT22;56032;51.324;12.376;2022-12-11T00:04:23;-0.90;99.90
15888;DHT22;56032;51.324;12.376;2022-12-11T00:06:56;-1.00;99.90
15888;DHT22;56032;51.324;12.376;2022-12-11T00:10:10;-1.10;99.90
15888;DHT22;56032;51.324;12.376;2022-12-11T00:12:44;-1.00;99.90
15888;DHT22;56032;51.324;12.376;2022-12-11T00:15:14;-0.70;99.90
15888;DHT22;56032;51.324;12.376;2022-12-11T00:17:53;-1.20;99.90
15888;DHT22;56032;51.324;12.376;2022-12-11T00:20:46;-1.20;99.90
15888;DHT22;56032;51.324;12.376;2022-12-11T00:23:45;-1.20;99.90
15888;DHT22;56032;51.324;12.376;2022-12-11T00:26:40;-1.30;99.90
15888;DHT22;56032;51.324;12.376;2022-12-11T00:29:29;-1.30;99.90
15888;DHT22;56032;51.324;12.376;2022-12-11T00:32:26;-1.40;99.90
15888;DHT22;56032;51.324;12.376;2022-12-11T00:38:16;-1.20;99.90
15888;DHT22;56032;51.324;12.376;2022-12-11T00:40:57;-1.20;99.90
15888;DHT22;56032;51.324;12.376;2022-12-11T00:43:45;-1.20;99.90
15888;DHT22;56032;51.324;12.376;2022-12-11T00:46:28;-1.20;99.90
15888;DHT22;56032;51.324;12.376;2022-12-11T00:49:17;-1.30;99.90
15888;DHT22;56032;51.324;12.376;2022-12-11T00:52:15;-1.30;99.90
15888;DHT22;56032;51.324;12.376;2022-12-11T00:58:11;-1.30;99.90
15888;DHT22;56032;51.324;12.376;2022-12-11T01:00:42;-1.20;99.90
15888;DHT22;56032;51.324;12.376;2022-12-11T01:03:20;-1.20;99.90
15888;DHT22;56032;51.324;12.376;2022-12-11T01:05:50;-1.20;99.90
15888;DHT22;56032;51.324;12.376;2022-12-11T01:08:35;-1.20;99.90
15888;DHT22;56032;51.324;12.376;2022-12-11T01:11:15;-1.10;99.90
15888;DHT22;56032;51.324;12.376;2022-12-11T01:14:00;-1.10;99.90
15888;DHT22;56032;51.324;12.376;2022-12-11T01:19:47;-1.20;99.90
15888;DHT22;56032;51.324;12.376;2022-12-11T01:22:30;-1.00;99.90
15888;DHT22;56032;51.324;12.376;2022-12-11T01:25:22;-1.00;99.90
15888;DHT22;56032;51.324;12.376;2022-12-11T01:27:56;-1.10;99.90
15888;DHT22;56032;51.324;12.376;2022-12-11T01:42:43;-1.20;99.90
15888;DHT22;56032;51.324;12.376;2022-12-11T01:48:30;-1.10;99.90
15888;DHT22;56032;51.324;12.376;2022-12-11T01:51:20;-1.00;99.90
15888;DHT22;56032;51.324;12.376;2022-12-11T01:54:07;-1.10;99.90
15888;DHT22;56032;51.324;12.376;2022-12-11T01:56:52;-1.20;99.90
15888;DHT22;56032;51.324;12.376;2022-12-11T01:59:30;-1.20;99.90
15888;DHT22;56032;51.324;12.376;2022-12-11T02:05:02;-1.00;99.90
15888;DHT22;56032;51.324;12.376;2022-12-11T02:07:42;-1.00;99.90
15888;DHT22;56032;51.324;12.376;2022-12-11T02:10:19;-1.00;99.90
15888;DHT22;56032;51.324;12.376;2022-12-11T02:12:56;-1.00;99.90
15888;DHT22;56032;51.324;12.376;2022-12-11T02:15:48;-1.00;99.90
15888;DHT22;56032;51.324;12.376;2022-12-11T02:18:24;-1.00;99.90
15888;DHT22;56032;51.324;12.376;2022-12-11T02:21:12;-1.10;99.90
15888;DHT22;56032;51.324;12.376;2022-12-11T02:23:52;-0.90;99.90
15888;DHT22;56032;51.324;12.376;2022-12-11T02:26:55;-0.90;99.90
15888;DHT22;56032;51.324;12.376;2022-12-11T02:29:52;-1.00;99.90
15888;DHT22;56032;51.324;12.376;2022-12-11T02:32:42;-0.90;99.90
15888;DHT22;56032;51.324;12.376;2022-12-11T02:35:43;-1.00;99.90
15888;DHT22;56032;51.324;12.376;2022-12-11T02:38:16;-1.00;99.90
15888;DHT22;56032;51.324;12.376;2022-12-11T02:40:51;-1.10;99.90
15888;DHT22;56032;51.324;12.376;2022-12-11T02:43:42;-1.00;99.90
15888;DHT22;56032;51.324;12.376;2022-12-11T02:52:49;-1.10;99.90
15888;DHT22;56032;51.324;12.376;2022-12-11T02:55:24;-1.10;99.90
15888;DHT22;56032;51.324;12.376;2022-12-11T02:58:05;-1.00;99.90
15888;DHT22;56032;51.324;12.376;2022-12-11T03:00:50;-1.10;99.90
15888;DHT22;56032;51.324;12.376;2022-12-11T03:03:52;-1.10;99.90
15888;DHT22;56032;51.324;12.376;2022-12-11T03:06:40;-1.00;99.90
15888;DHT22;56032;51.324;12.376;2022-12-11T03:09:18;-1.00;99.90
15888;DHT22;56032;51.324;12.376;2022-12-11T03:12:05;-1.00;99.90
15888;DHT22;56032;51.324;12.376;2022-12-11T03:14:53;-1.20;99.90
15888;DHT22;56032;51.324;12.376;2022-12-11T03:17:26;-1.10;99.90
15888;DHT22;56032;51.324;12.376;2022-12-11T03:20:18;-1.10;99.90
15888;DHT22;56032;51.324;12.376;2022-12-11T03:23:00;-1.10;99.90
15888;DHT22;56032;51.324;12.376;2022-12-11T03:25:55;-1.20;99.90
15888;DHT22;56032;51.324;12.376;2022-12-11T03:28:33;-1.10;99.90
15888;DHT22;56032;51.324;12.376;2022-12-11T03:31:21;-1.20;99.90
15888;DHT22;56032;51.324;12.376;2022-12-11T03:34:02;-1.10;99.90
15888;DHT22;56032;51.324;12.376;2022-12-11T03:36:36;-1.00;99.90
15888;DHT22;56032;51.324;12.376;2022-12-11T03:39:06;-1.00;99.90
15888;DHT22;56032;51.324;12.376;2022-12-11T03:41:43;-1.00;99.90
15888;DHT22;56032;51.324;12.376;2022-12-11T03:44:17;-1.00;99.90
15888;DHT22;56032;51.324;12.376;2022-12-11T03:47:04;-1.00;99.90
15888;DHT22;56032;51.324;12.376;2022-12-11T03:49:46;-1.20;99.90
15888;DHT22;56032;51.324;12.376;2022-12-11T03:52:16;-1.10;99.90
15888;DHT22;56032;51.324;12.376;2022-12-11T03:54:46;-1.10;99.90
15888;DHT22;56032;51.324;12.376;2022-12-11T03:57:20;-1.10;99.90
15888;DHT22;56032;51.324;12.376;2022-12-11T03:59:52;-1.10;99.90
15888;DHT22;56032;51.324;12.376;2022-12-11T04:02:26;-1.10;99.90
15888;DHT22;56032;51.324;12.376;2022-12-11T04:05:00;-1.00;99.90
15888;DHT22;56032;51.324;12.376;2022-12-11T04:07:32;-1.10;99.90
15888;DHT22;56032;51.324;12.376;2022-12-11T04:10:25;-1.20;99.90
15888;DHT22;56032;51.324;12.376;2022-12-11T04:13:05;-1.20;99.90
15888;DHT22;56032;51.324;12.376;2022-12-11T04:15:49;-1.20;99.90
15888;DHT22;56032;51.324;12.376;2022-12-11T04:18:19;-1.30;99.90
15888;DHT22;56032;51.324;12.376;2022-12-11T04:21:17;-1.40;99.90
15888;DHT22;56032;51.324;12.376;2022-12-11T04:24:06;-1.40;99.90
15888;DHT22;56032;51.324;12.376;2022-12-11T04:26:55;-1.50;99.90
15888;DHT22;56032;51.324;12.376;2022-12-11T04:29:27;-1.50;99.90
15888;DHT22;56032;51.324;12.376;2022-12-11T04:31:57;-1.50;99.90
15888;DHT22;56032;51.324;12.376;2022-12-11T04:34:41;-1.40;99.90
15888;DHT22;56032;51.324;12.376;2022-12-11T04:37:11;-1.40;99.90
15888;DHT22;56032;51.324;12.376;2022-12-11T04:39:44;-1.50;99.90
15888;DHT22;56032;51.324;12.376;2022-12-11T04:42:16;-1.50;99.90
15888;DHT22;56032;51.324;12.376;2022-12-11T04:45:11;-1.40;99.90
15888;DHT22;56032;51.324;12.376;2022-12-11T04:47:47;-1.40;99.90
15888;DHT22;56032;51.324;12.376;2022-12-11T04:50:21;-1.40;99.90
15888;DHT22;56032;51.324;12.376;2022-12-11T04:52:54;-1.40;99.90
15888;DHT22;56032;51.324;12.376;2022-12-11T04:55:28;-1.50;99.90
15888;DHT22;56032;51.324;12.376;2022-12-11T04:58:02;-1.50;99.90
15888;DHT22;56032;51.324;12.376;2022-12-11T05:00:35;-1.50;99.90
15888;DHT22;56032;51.324;12.376;2022-12-11T05:03:05;-1.40;99.90
15888;DHT22;56032;51.324;12.376;2022-12-11T05:05:46;-1.40;99.90
15888;DHT22;56032;51.324;12.376;2022-12-11T05:08:19;-1.40;99.90
15888;DHT22;56032;51.324;12.376;2022-12-11T05:10:54;-1.40;99.90
15888;DHT22;56032;51.324;12.376;2022-12-11T05:13:31;-1.40;99.90
15888;DHT22;56032;51.324;12.376;2022-12-11T05:16:10;-1.30;99.90
15888;DHT22;56032;51.324;12.376;2022-12-11T05:18:41;-1.40;99.90
15888;DHT22;56032;51.324;12.376;2022-12-11T05:21:16;-1.40;99.90
15888;DHT22;56032;51.324;12.376;2022-12-11T05:24:04;-1.40;99.90
15888;DHT22;56032;51.324;12.376;2022-12-11T05:26:34;-1.50;99.90
15888;DHT22;56032;51.324;12.376;2022-12-11T05:29:11;-1.50;99.90
15888;DHT22;56032;51.324;12.376;2022-12-11T05:31:45;-1.50;99.90
15888;DHT22;56032;51.324;12.376;2022-12-11T05:34:26;-1.40;99.90
15888;DHT22;56032;51.324;12.376;2022-12-11T05:37:03;-1.60;99.90
15888;DHT22;56032;51.324;12.376;2022-12-11T05:39:36;-1.50;99.90
15888;DHT22;56032;51.324;12.376;2022-12-11T05:42:09;-1.60;99.90
15888;DHT22;56032;51.324;12.376;2022-12-11T05:44:55;-1.60;99.90
15888;DHT22;56032;51.324;12.376;2022-12-11T05:47:29;-0.80;99.90
15888;DHT22;56032;51.324;12.376;2022-12-11T05:50:08;-1.60;99.90
15888;DHT22;56032;51.324;12.376;2022-12-11T05:52:41;-1.60;99.90
15888;DHT22;56032;51.324;12.376;2022-12-11T05:55:13;-1.60;99.90
15888;DHT22;56032;51.324;12.376;2022-12-11T05:57:49;-1.50;99.90
15888;DHT22;56032;51.324;12.376;2022-12-11T06:00:23;-1.60;99.90
15888;DHT22;56032;51.324;12.376;2022-12-11T06:03:07;-1.60;99.90
15888;DHT22;56032;51.324;12.376;2022-12-11T06:05:44;-1.50;99.90
15888;DHT22;56032;51.324;12.376;2022-12-11T06:08:25;-1.50;99.90
15888;DHT22;56032;51.324;12.376;2022-12-11T06:11:01;-1.50;99.90
15888;DHT22;56032;51.324;12.376;2022-12-11T06:13:49;-1.50;99.90
15888;DHT22;56032;51.324;12.376;2022-12-11T06:16:20;-1.60;99.90
15888;DHT22;56032;51.324;12.376;2022-12-11T06:19:06;-1.60;99.90
15888;DHT22;56032;51.324;12.376;2022-12-11T06:21:41;-1.60;99.90
15888;DHT22;56032;51.324;12.376;2022-12-11T06:24:13;-1.50;99.90
15888;DHT22;56032;51.324;12.376;2022-12-11T06:26:48;-1.50;99.90
15888;DHT22;56032;51.324;12.376;2022-12-11T06:29:26;-1.60;99.90
15888;DHT22;56032;51.324;12.376;2022-12-11T06:31:55;-1.60;99.90
15888;DHT22;56032;51.324;12.376;2022-12-11T06:34:34;-1.70;99.90
15888;DHT22;56032;51.324;12.376;2022-12-11T06:37:06;-1.70;99.90
15888;DHT22;56032;51.324;12.376;2022-12-11T06:39:38;-1.70;99.90
15888;DHT22;56032;51.324;12.376;2022-12-11T06:42:17;-1.50;99.90
15888;DHT22;56032;51.324;12.376;2022-12-11T06:44:54;-1.40;99.90
15888;DHT22;56032;51.324;12.376;2022-12-11T06:47:23;-1.50;99.90
15888;DHT22;56032;51.324;12.376;2022-12-11T06:50:08;-1.50;99.90
15888;DHT22;56032;51.324;12.376;2022-12-11T06:52:43;-1.60;99.90
15888;DHT22;56032;51.324;12.376;2022-12-11T06:55:14;-1.60;99.90
15888;DHT22;56032;51.324;12.376;2022-12-11T06:57:43;-1.60;99.90
15888;DHT22;56032;51.324;12.376;2022-12-11T07:00:20;-1.50;99.90
15888;DHT22;56032;51.324;12.376;2022-12-11T07:02:57;-1.40;99.90
15888;DHT22;56032;51.324;12.376;2022-12-11T07:05:29;-1.50;99.90
15888;DHT22;56032;51.324;12.376;2022-12-11T07:07:59;-1.50;99.90
15888;DHT22;56032;51.324;12.376;2022-12-11T07:10:29;-1.40;99.90
15888;DHT22;56032;51.324;12.376;2022-12-11T07:13:04;-1.50;99.90
15888;DHT22;56032;51.324;12.376;2022-12-11T07:16:04;-1.40;99.90
15888;DHT22;56032;51.324;12.376;2022-12-11T07:18:38;-1.70;99.90
15888;DHT22;56032;51.324;12.376;2022-12-11T07:21:13;-1.70;99.90
15888;DHT22;56032;51.324;12.376;2022-12-11T07:23:44;-1.80;99.90
15888;DHT22;56032;51.324;12.376;2022-12-11T07:26:16;-1.70;99.90
15888;DHT22;56032;51.324;12.376;2022-12-11T07:28:48;-1.70;99.90
15888;DHT22;56032;51.324;12.376;2022-12-11T07:31:27;-1.60;99.90
15888;DHT22;56032;51.324;12.376;2022-12-11T07:33:58;-1.60;99.90
15888;DHT22;56032;51.324;12.376;2022-12-11T07:36:35;-1.60;99.90
15888;DHT22;56032;51.324;12.376;2022-12-11T07:39:09;-1.50;99.90
15888;DHT22;56032;51.324;12.376;2022-12-11T07:41:46;-1.50;99.90
15888;DHT22;56032;51.324;12.376;2022-12-11T07:44:25;-1.50;99.90
15888;DHT22;56032;51.324;12.376;2022-12-11T07:47:00;-1.40;99.90
15888;DHT22;56032;51.324;12.376;2022-12-11T07:49:37;-1.40;99.90
15888;DHT22;56032;51.324;12.376;2022-12-11T07:55:10;-1.30;99.90
15888;DHT22;56032;51.324;12.376;2022-12-11T07:57:46;-1.40;99.90
15888;DHT22;56032;51.324;12.376;2022-12-11T08:00:19;-1.30;99.90
15888;DHT22;56032;51.324;12.376;2022-12-11T08:02:51;-1.30;99.90
15888;DHT22;56032;51.324;12.376;2022-12-11T08:05:22;-1.20;99.90
15888;DHT22;56032;51.324;12.376;2022-12-11T08:07:54;-1.00;99.90
15888;DHT22;56032;51.324;12.376;2022-12-11T08:10:31;-1.00;99.90
15888;DHT22;56032;51.324;12.376;2022-12-11T08:13:05;-1.00;99.90
15888;DHT22;56032;51.324;12.376;2022-12-11T08:15:58;-1.00;99.90
15888;DHT22;56032;51.324;12.376;2022-12-11T08:18:31;-1.10;99.90
15888;DHT22;56032;51.324;12.376;2022-12-11T08:21:14;-1.10;99.90
15888;DHT22;56032;51.324;12.376;2022-12-11T08:23:48;-1.10;99.90
15888;DHT22;56032;51.324;12.376;2022-12-11T08:26:21;-1.20;99.90
15888;DHT22;56032;51.324;12.376;2022-12-11T08:28:53;-1.30;99.90
15888;DHT22;56032;51.324;12.376;2022-12-11T08:31:32;-1.30;99.90
15888;DHT22;56032;51.324;12.376;2022-12-11T08:34:03;-1.40;99.90
15888;DHT22;56032;51.324;12.376;2022-12-11T08:36:44;-1.30;99.90
15888;DHT22;56032;51.324;12.376;2022-12-11T08:39:25;-1.30;99.90
15888;DHT22;56032;51.324;12.376;2022-12-11T08:42:05;-1.30;99.90
15888;DHT22;56032;51.324;12.376;2022-12-11T08:44:43;-1.40;99.90
15888;DHT22;56032;51.324;12.376;2022-12-11T08:47:16;-1.30;99.90
15888;DHT22;56032;51.324;12.376;2022-12-11T08:49:49;-1.30;99.90
15888;DHT22;56032;51.324;12.376;2022-12-11T08:52:29;-1.30;99.90
15888;DHT22;56032;51.324;12.376;2022-12-11T08:55:06;-1.30;99.90
15888;DHT22;56032;51.324;12.376;2022-12-11T08:57:41;-1.40;99.90
15888;DHT22;56032;51.324;12.376;2022-12-11T09:00:13;-1.50;99.90
15888;DHT22;56032;51.324;12.376;2022-12-11T09:03:02;-1.30;99.90
15888;DHT22;56032;51.324;12.376;2022-12-11T09:05:44;-1.40;99.90
15888;DHT22;56032;51.324;12.376;2022-12-11T09:08:16;-1.30;99.90
15888;DHT22;56032;51.324;12.376;2022-12-11T09:10:45;-1.30;99.90
15888;DHT22;56032;51.324;12.376;2022-12-11T09:13:17;-1.40;99.90
15888;DHT22;56032;51.324;12.376;2022-12-11T09:15:59;-1.40;99.90
15888;DHT22;56032;51.324;12.376;2022-12-11T09:18:44;-1.40;99.90
15888;DHT22;56032;51.324;12.376;2022-12-11T09:21:28;-1.30;99.90
15888;DHT22;56032;51.324;12.376;2022-12-11T09:24:00;-1.30;99.90
15888;DHT22;56032;51.324;12.376;2022-12-11T09:26:35;-1.10;99.90
15888;DHT22;56032;51.324;12.376;2022-12-11T09:29:09;-1.00;99.90
15888;DHT22;56032;51.324;12.376;2022-12-11T09:31:40;-1.20;99.90
15888;DHT22;56032;51.324;12.376;2022-12-11T09:34:15;-1.20;99.90
15888;DHT22;56032;51.324;12.376;2022-12-11T09:36:56;-1.10;99.90
15888;DHT22;56032;51.324;12.376;2022-12-11T09:39:42;-1.00;99.90
15888;DHT22;56032;51.324;12.376;2022-12-11T09:42:21;-0.90;99.90
15888;DHT22;56032;51.324;12.376;2022-12-11T09:45:00;-0.80;99.90
15888;DHT22;56032;51.324;12.376;2022-12-11T09:47:35;-1.00;99.90
15888;DHT22;56032;51.324;12.376;2022-12-11T09:50:14;-1.00;99.90
15888;DHT22;56032;51.324;12.376;2022-12-11T09:52:57;-0.90;99.90
15888;DHT22;56032;51.324;12.376;2022-12-11T09:55:32;-0.90;99.90
15888;DHT22;56032;51.324;12.376;2022-12-11T09:58:13;-1.00;99.90
15888;DHT22;56032;51.324;12.376;2022-12-11T10:00:55;-0.90;99.90
15888;DHT22;56032;51.324;12.376;2022-12-11T10:03:33;-0.90;99.90
15888;DHT22;56032;51.324;12.376;2022-12-11T10:06:11;-0.90;99.90
15888;DHT22;56032;51.324;12.376;2022-12-11T10:08:50;-0.90;99.90
15888;DHT22;56032;51.324;12.376;2022-12-11T10:11:46;-1.00;99.90
15888;DHT22;56032;51.324;12.376;2022-12-11T10:14:25;-1.10;99.90
15888;DHT22;56032;51.324;12.376;2022-12-11T10:17:05;-1.20;99.90
15888;DHT22;56032;51.324;12.376;2022-12-11T10:19:39;-1.00;99.90
15888;DHT22;56032;51.324;12.376;2022-12-11T10:22:20;-1.00;99.90
15888;DHT22;56032;51.324;12.376;2022-12-11T10:25:05;-1.20;99.90
15888;DHT22;56032;51.324;12.376;2022-12-11T10:27:47;-1.30;99.90
15888;DHT22;56032;51.324;12.376;2022-12-11T10:30:21;-1.40;99.90
15888;DHT22;56032;51.324;12.376;2022-12-11T10:33:35;-1.40;99.90
15888;DHT22;56032;51.324;12.376;2022-12-11T10:36:18;-1.40;99.90
15888;DHT22;56032;51.324;12.376;2022-12-11T10:38:50;-1.20;99.90
15888;DHT22;56032;51.324;12.376;2022-12-11T10:41:41;-1.20;99.90
15888;DHT22;56032;51.324;12.376;2022-12-11T10:44:16;-1.10;99.90
15888;DHT22;56032;51.324;12.376;2022-12-11T10:46:59;-1.20;99.90
15888;DHT22;56032;51.324;12.376;2022-12-11T10:49:34;-1.20;99.90
15888;DHT22;56032;51.324;12.376;2022-12-11T10:52:19;-1.10;99.90
15888;DHT22;56032;51.324;12.376;2022-12-11T10:55:04;-1.10;99.90
15888;DHT22;56032;51.324;12.376;2022-12-11T10:58:11;-1.10;99.90
15888;DHT22;56032;51.324;12.376;2022-12-11T11:00:48;-1.10;99.90
15888;DHT22;56032;51.324;12.376;2022-12-11T11:03:42;-1.20;99.90
15888;DHT22;56032;51.324;12.376;2022-12-11T11:06:17;-1.20;99.90
15888;DHT22;56032;51.324;12.376;2022-12-11T11:08:49;-1.30;99.90
15888;DHT22;56032;51.324;12.376;2022-12-11T11:11:31;-1.10;99.90
15888;DHT22;56032;51.324;12.376;2022-12-11T11:14:18;-1.10;99.90
15888;DHT22;56032;51.324;12.376;2022-12-11T11:17:03;-1.10;99.90
15888;DHT22;56032;51.324;12.376;2022-12-11T11:19:35;-1.10;99.90
15888;DHT22;56032;51.324;12.376;2022-12-11T11:22:16;-1.20;99.90
15888;DHT22;56032;51.324;12.376;2022-12-11T11:24:59;-0.90;99.90
15888;DHT22;56032;51.324;12.376;2022-12-11T11:27:33;-0.80;99.90
15888;DHT22;56032;51.324;12.376;2022-12-11T11:30:16;-0.80;99.90
15888;DHT22;56032;51.324;12.376;2022-12-11T11:33:02;-0.80;99.90
15888;DHT22;56032;51.324;12.376;2022-12-11T11:35:38;-0.70;99.90
15888;DHT22;56032;51.324;12.376;2022-12-11T11:38:14;-0.70;99.90
15888;DHT22;56032;51.324;12.376;2022-12-11T11:40:53;-0.70;99.90
15888;DHT22;56032;51.324;12.376;2022-12-11T11:43:37;-0.70;99.90
15888;DHT22;56032;51.324;12.376;2022-12-11T11:46:16;-0.90;99.90
15888;DHT22;56032;51.324;12.376;2022-12-11T11:48:57;-1.00;99.90
15888;DHT22;56032;51.324;12.376;2022-12-11T11:51:29;-1.00;99.90
15888;DHT22;56032;51.324;12.376;2022-12-11T11:54:06;-0.90;99.90
15888;DHT22;56032;51.324;12.376;2022-12-11T11:56:53;-0.80;99.90
15888;DHT22;56032;51.324;12.376;2022-12-11T11:59:33;-0.60;99.90
15888;DHT22;56032;51.324;12.376;2022-12-11T12:02:09;-0.70;99.90
15888;DHT22;56032;51.324;12.376;2022-12-11T12:04:54;-0.80;99.90
15888;DHT22;56032;51.324;12.376;2022-12-11T12:07:35;-0.70;99.90
15888;DHT22;56032;51.324;12.376;2022-12-11T12:10:12;-0.70;99.90
15888;DHT22;56032;51.324;12.376;2022-12-11T12:13:00;-0.50;99.90
15888;DHT22;56032;51.324;12.376;2022-12-11T12:16:00;-0.50;99.90
15888;DHT22;56032;51.324;12.376;2022-12-11T12:18:56;-0.60;99.90
15888;DHT22;56032;51.324;12.376;2022-12-11T12:21:33;-0.60;99.90
15888;DHT22;56032;51.324;12.376;2022-12-11T12:24:25;-0.70;99.90
15888;DHT22;56032;51.324;12.376;2022-12-11T12:27:15;-0.60;99.90
15888;DHT22;56032;51.324;12.376;2022-12-11T12:30:11;-0.70;99.90
15888;DHT22;56032;51.324;12.376;2022-12-11T12:32:58;-0.50;99.90
15888;DHT22;56032;51.324;12.376;2022-12-11T12:35:33;-0.40;99.90
15888;DHT22;56032;51.324;12.376;2022-12-11T12:38:12;-0.60;99.90
15888;DHT22;56032;51.324;12.376;2022-12-11T12:40:52;-0.70;99.90
15888;DHT22;56032;51.324;12.376;2022-12-11T12:46:35;-0.90;99.90
15888;DHT22;56032;51.324;12.376;2022-12-11T12:49:27;-0.90;99.90
15888;DHT22;56032;51.324;12.376;2022-12-11T12:52:11;-0.80;99.90
15888;DHT22;56032;51.324;12.376;2022-12-11T12:54:50;-0.80;99.90
15888;DHT22;56032;51.324;12.376;2022-12-11T12:57:38;-0.90;99.90
15888;DHT22;56032;51.324;12.376;2022-12-11T13:00:25;-0.60;99.90
15888;DHT22;56032;51.324;12.376;2022-12-11T13:03:13;-0.90;99.90
15888;DHT22;56032;51.324;12.376;2022-12-11T13:05:54;-0.80;99.90
15888;DHT22;56032;51.324;12.376;2022-12-11T13:08:41;-0.80;99.90
15888;DHT22;56032;51.324;12.376;2022-12-11T13:11:34;-0.80;99.90
15888;DHT22;56032;51.324;12.376;2022-12-11T13:14:26;-0.90;99.90
15888;DHT22;56032;51.324;12.376;2022-12-11T13:20:22;-0.90;99.90
15888;DHT22;56032;51.324;12.376;2022-12-11T13:23:14;-1.60;99.90
15888;DHT22;56032;51.324;12.376;2022-12-11T13:25:54;-0.90;99.90
15888;DHT22;56032;51.324;12.376;2022-12-11T13:28:46;-0.50;99.90
15888;DHT22;56032;51.324;12.376;2022-12-11T13:31:26;-0.90;99.90
15888;DHT22;56032;51.324;12.376;2022-12-11T13:34:14;-1.00;99.90
15888;DHT22;56032;51.324;12.376;2022-12-11T13:39:52;-1.00;99.90
15888;DHT22;56032;51.324;12.376;2022-12-11T13:42:25;-1.00;99.90
15888;DHT22;56032;51.324;12.376;2022-12-11T13:44:59;-0.80;99.90
15888;DHT22;56032;51.324;12.376;2022-12-11T13:47:33;-0.90;99.90
15888;DHT22;56032;51.324;12.376;2022-12-11T13:50:16;-0.90;99.90
15888;DHT22;56032;51.324;12.376;2022-12-11T13:52:53;-0.90;99.90
15888;DHT22;56032;51.324;12.376;2022-12-11T13:55:45;-0.90;99.90
15888;DHT22;56032;51.324;12.376;2022-12-11T13:58:16;-0.90;99.90
15888;DHT22;56032;51.324;12.376;2022-12-11T14:00:55;-1.10;99.90
15888;DHT22;56032;51.324;12.376;2022-12-11T14:03:42;-1.10;99.90
15888;DHT22;56032;51.324;12.376;2022-12-11T14:06:28;-1.00;99.90
15888;DHT22;56032;51.324;12.376;2022-12-11T14:09:06;-1.10;99.90
15888;DHT22;56032;51.324;12.376;2022-12-11T14:11:42;-1.00;99.90
15888;DHT22;56032;51.324;12.376;2022-12-11T14:14:23;-1.10;99.90
15888;DHT22;56032;51.324;12.376;2022-12-11T14:16:55;-1.00;99.90
15888;DHT22;56032;51.324;12.376;2022-12-11T14:19:31;-0.90;99.90
15888;DHT22;56032;51.324;12.376;2022-12-11T14:22:15;-1.00;99.90
15888;DHT22;56032;51.324;12.376;2022-12-11T14:24:51;-1.10;99.90
15888;DHT22;56032;51.324;12.376;2022-12-11T14:27:30;-1.10;99.90
15888;DHT22;56032;51.324;12.376;2022-12-11T14:30:18;-1.20;99.90
15888;DHT22;56032;51.324;12.376;2022-12-11T14:32:52;-1.30;99.90
15888;DHT22;56032;51.324;12.376;2022-12-11T14:35:27;-1.20;99.90
15888;DHT22;56032;51.324;12.376;2022-12-11T14:38:15;-1.20;99.90
15888;DHT22;56032;51.324;12.376;2022-12-11T14:40:49;-1.20;99.90
15888;DHT22;56032;51.324;12.376;2022-12-11T14:43:40;-1.10;99.90
15888;DHT22;56032;51.324;12.376;2022-12-11T14:46:15;-1.10;99.90
15888;DHT22;56032;51.324;12.376;2022-12-11T14:49:11;-1.10;99.90
15888;DHT22;56032;51.324;12.376;2022-12-11T14:51:53;-1.20;99.90
15888;DHT22;56032;51.324;12.376;2022-12-11T14:54:26;-1.30;99.90
15888;DHT22;56032;51.324;12.376;2022-12-11T14:57:04;-1.30;99.90
15888;DHT22;56032;51.324;12.376;2022-12-11T14:59:44;-1.30;99.90
15888;DHT22;56032;51.324;12.376;2022-12-11T15:02:23;-1.20;99.90
15888;DHT22;56032;51.324;12.376;2022-12-11T15:05:01;-1.40;99.90
15888;DHT22;56032;51.324;12.376;2022-12-11T15:07:36;-1.40;99.90
15888;DHT22;56032;51.324;12.376;2022-12-11T15:10:22;-1.40;99.90
15888;DHT22;56032;51.324;12.376;2022-12-11T15:12:56;-1.40;99.90
15888;DHT22;56032;51.324;12.376;2022-12-11T15:18:30;-1.20;99.90
15888;DHT22;56032;51.324;12.376;2022-12-11T15:21:14;-1.20;99.90
15888;DHT22;56032;51.324;12.376;2022-12-11T15:23:50;-1.30;99.90
15888;DHT22;56032;51.324;12.376;2022-12-11T15:26:32;-1.30;99.90
15888;DHT22;56032;51.324;12.376;2022-12-11T15:29:21;-1.40;99.90
15888;DHT22;56032;51.324;12.376;2022-12-11T15:32:11;-1.30;99.90
15888;DHT22;56032;51.324;12.376;2022-12-11T15:34:56;-1.40;99.90
15888;DHT22;56032;51.324;12.376;2022-12-11T15:37:38;-1.30;99.90
15888;DHT22;56032;51.324;12.376;2022-12-11T15:40:23;-1.40;99.90
15888;DHT22;56032;51.324;12.376;2022-12-11T15:43:00;-1.30;99.90
15888;DHT22;56032;51.324;12.376;2022-12-11T15:45:30;-1.20;99.90
15888;DHT22;56032;51.324;12.376;2022-12-11T15:47:59;-1.40;99.90
15888;DHT22;56032;51.324;12.376;2022-12-11T15:50:33;-1.30;99.90
15888;DHT22;56032;51.324;12.376;2022-12-11T15:53:07;-1.20;99.90
15888;DHT22;56032;51.324;12.376;2022-12-11T15:55:39;-1.30;99.90
15888;DHT22;56032;51.324;12.376;2022-12-11T15:58:12;-1.30;99.90
15888;DHT22;56032;51.324;12.376;2022-12-11T16:00:43;-1.40;99.90
15888;DHT22;56032;51.324;12.376;2022-12-11T16:03:23;-1.60;99.90
15888;DHT22;56032;51.324;12.376;2022-12-11T16:08:59;-1.50;99.90
15888;DHT22;56032;51.324;12.376;2022-12-11T16:11:32;-1.60;99.90
15888;DHT22;56032;51.324;12.376;2022-12-11T16:14:05;-1.60;99.90
15888;DHT22;56032;51.324;12.376;2022-12-11T16:16:39;-1.60;99.90
15888;DHT22;56032;51.324;12.376;2022-12-11T16:19:14;-1.60;99.90
15888;DHT22;56032;51.324;12.376;2022-12-11T16:21:53;-1.50;99.90
15888;DHT22;56032;51.324;12.376;2022-12-11T16:24:42;-1.60;99.90
15888;DHT22;56032;51.324;12.376;2022-12-11T16:27:20;-1.60;99.90
15888;DHT22;56032;51.324;12.376;2022-12-11T16:30:05;-1.50;99.90
15888;DHT22;56032;51.324;12.376;2022-12-11T16:33:10;-1.40;99.90
15888;DHT22;56032;51.324;12.376;2022-12-11T16:35:47;-1.50;99.90
15888;DHT22;56032;51.324;12.376;2022-12-11T16:38:33;-1.50;99.90
15888;DHT22;56032;51.324;12.376;2022-12-11T16:41:11;-1.40;99.90
15888;DHT22;56032;51.324;12.376;2022-12-11T16:43:55;-1.50;99.90
15888;DHT22;56032;51.324;12.376;2022-12-11T16:46:31;-1.50;99.90
15888;DHT22;56032;51.324;12.376;2022-12-11T16:49:23;-1.50;99.90
15888;DHT22;56032;51.324;12.376;2022-12-11T16:51:57;-1.40;99.90
15888;DHT22;56032;51.324;12.376;2022-12-11T16:54:51;-1.50;99.90
15888;DHT22;56032;51.324;12.376;2022-12-11T16:57:33;-1.50;99.90
15888;DHT22;56032;51.324;12.376;2022-12-11T17:00:03;-1.40;99.90
15888;DHT22;56032;51.324;12.376;2022-12-11T17:03:02;-1.40;99.90
15888;DHT22;56032;51.324;12.376;2022-12-11T17:06:04;-1.60;99.90
15888;DHT22;56032;51.324;12.376;2022-12-11T17:08:48;-1.60;99.90
15888;DHT22;56032;51.324;12.376;2022-12-11T17:11:24;-1.40;99.90
15888;DHT22;56032;51.324;12.376;2022-12-11T17:14:18;-1.40;99.90
15888;DHT22;56032;51.324;12.376;2022-12-11T17:17:02;-1.50;99.90
15888;DHT22;56032;51.324;12.376;2022-12-11T17:19:38;-1.30;99.90
15888;DHT22;56032;51.324;12.376;2022-12-11T17:22:27;-1.60;99.90
15888;DHT22;56032;51.324;12.376;2022-12-11T17:25:11;-1.60;99.90
15888;DHT22;56032;51.324;12.376;2022-12-11T17:27:45;-1.60;99.90